sensor_id;sensor_type;location;lat;lon;timestamp;pressure;altitude;pressure_sealevel;temperature;humidity
70841;BME280;58465;51.534;9.934;2022-09-21T00:00:13;100958.56;;;7.77;90.32
70841;BME280;58465;51.534;9.934;2022-09-21T00:02:38;100954.13;;;7.75;89.99
70841;BME280;58465;51.534;9.934;2022-09-21T00:05:04;100954.97;;;7.72;89.98
70841;BME280;58465;51.534;9.934;2022-09-21T00:07:30;100958.53;;;7.67;89.88
70841;BME280;58465;51.534;9.934;2022-09-21T00:09:55;100948.75;;;7.63;90.15
70841;BME280;58465;51.534;9.934;2022-09-21T00:12:21;100952.28;;;7.62;90.10
70841;BME280;58465;51.534;9.934;2022-09-21T00:14:46;100951.38;;;7.61;90.04
70841;BME280;58465;51.534;9.934;2022-09-21T00:17:12;100954.94;;;7.57;89.90
70841;BME280;58465;51.534;9.934;2022-09-21T00:19:37;100957.56;;;7.54;89.95
70841;BME280;58465;51.534;9.934;2022-09-21T00:22:02;100952.25;;;7.50;90.14
70841;BME280;58465;51.534;9.934;2022-09-21T00:24:28;100958.44;;;7.49;90.09
70841;BME280;58465;51.534;9.934;2022-09-21T00:26:53;100958.44;;;7.50;89.97
70841;BME280;58465;51.534;9.934;2022-09-21T00:29:18;100956.66;;;7.48;89.73
70841;BME280;58465;51.534;9.934;2022-09-21T00:31:44;100956.63;;;7.41;89.65
70841;BME280;58465;51.534;9.934;2022-09-21T00:34:09;100956.63;;;7.37;89.44
70841;BME280;58465;51.534;9.934;2022-09-21T00:36:34;100957.47;;;7.28;89.65
70841;BME280;58465;51.534;9.934;2022-09-21T00:39:00;100951.19;;;7.17;89.87
70841;BME280;58465;51.534;9.934;2022-09-21T00:41:28;100957.38;;;7.10;89.97
70841;BME280;58465;51.534;9.934;2022-09-21T00:44:18;100961.72;;;7.03;89.68
70841;BME280;58465;51.534;9.934;2022-09-21T00:46:45;100958.19;;;7.01;89.88
70841;BME280;58465;51.534;9.934;2022-09-21T00:49:12;100962.59;;;6.99;89.77
70841;BME280;58465;51.534;9.934;2022-09-21T00:51:38;100964.34;;;6.96;89.76
70841;BME280;58465;51.534;9.934;2022-09-21T00:54:07;100967.88;;;6.95;89.79
70841;BME280;58465;51.534;9.934;2022-09-21T00:56:34;100966.09;;;6.94;89.59
70841;BME280;58465;51.534;9.934;2022-09-21T00:59:01;100968.69;;;6.86;89.66
70841;BME280;58465;51.534;9.934;2022-09-21T01:01:27;100959.75;;;6.75;89.38
70841;BME280;58465;51.534;9.934;2022-09-21T01:03:53;100974.75;;;6.67;89.43
70841;BME280;58465;51.534;9.934;2022-09-21T01:06:20;100972.91;;;6.58;89.57
70841;BME280;58465;51.534;9.934;2022-09-21T01:08:49;100966.69;;;6.56;89.61
70841;BME280;58465;51.534;9.934;2022-09-21T01:11:28;100978.16;;;6.52;89.74
70841;BME280;58465;51.534;9.934;2022-09-21T01:20:17;100983.50;;;6.57;89.35
70841;BME280;58465;51.534;9.934;2022-09-21T01:26:20;100985.34;;;6.62;89.20
70841;BME280;58465;51.534;9.934;2022-09-21T01:31:41;101002.00;;;6.48;89.16
70841;BME280;58465;51.534;9.934;2022-09-21T01:34:14;100996.69;;;6.46;89.36
70841;BME280;58465;51.534;9.934;2022-09-21T01:36:42;100992.31;;;6.50;89.17
70841;BME280;58465;51.534;9.934;2022-09-21T01:39:11;100991.44;;;6.51;89.22
70841;BME280;58465;51.534;9.934;2022-09-21T01:41:39;100999.38;;;6.49;89.09
70841;BME280;58465;51.534;9.934;2022-09-21T01:44:09;100991.44;;;6.51;89.30
70841;BME280;58465;51.534;9.934;2022-09-21T01:46:38;100994.94;;;6.50;89.31
70841;BME280;58465;51.534;9.934;2022-09-21T01:49:17;100993.16;;;6.49;89.24
70841;BME280;58465;51.534;9.934;2022-09-21T01:51:46;101003.78;;;6.49;89.08
70841;BME280;58465;51.534;9.934;2022-09-21T01:54:17;101001.13;;;6.47;89.36
70841;BME280;58465;51.534;9.934;2022-09-21T01:57:00;100991.41;;;6.49;89.56
70841;BME280;58465;51.534;9.934;2022-09-21T01:59:37;100991.41;;;6.49;89.48
70841;BME280;58465;51.534;9.934;2022-09-21T02:02:14;100990.50;;;6.47;89.46
70841;BME280;58465;51.534;9.934;2022-09-21T02:04:40;100997.59;;;6.48;89.41
70841;BME280;58465;51.534;9.934;2022-09-21T02:07:06;101009.97;;;6.49;89.56
70841;BME280;58465;51.534;9.934;2022-09-21T02:09:32;101015.22;;;6.45;89.45
70841;BME280;58465;51.534;9.934;2022-09-21T02:11:59;101009.91;;;6.42;89.52
70841;BME280;58465;51.534;9.934;2022-09-21T02:14:26;101009.84;;;6.37;89.37
70841;BME280;58465;51.534;9.934;2022-09-21T02:17:19;101008.03;;;6.30;89.44
70841;BME280;58465;51.534;9.934;2022-09-21T02:20:08;101008.84;;;6.26;89.66
70841;BME280;58465;51.534;9.934;2022-09-21T02:22:48;101009.69;;;6.20;89.53
70841;BME280;58465;51.534;9.934;2022-09-21T02:25:29;101014.94;;;6.16;89.52
70841;BME280;58465;51.534;9.934;2022-09-21T02:28:49;101007.84;;;6.12;89.68
70841;BME280;58465;51.534;9.934;2022-09-21T02:30:56;101012.31;;;6.19;90.14
70841;BME280;58465;51.534;9.934;2022-09-21T02:33:33;101007.09;;;6.23;90.44
70841;BME280;58465;51.534;9.934;2022-09-21T02:36:10;101007.16;;;6.31;90.34
70841;BME280;58465;51.534;9.934;2022-09-21T02:40:02;101004.47;;;6.28;89.79
70841;BME280;58465;51.534;9.934;2022-09-21T02:42:07;101002.69;;;6.27;89.64
70841;BME280;58465;51.534;9.934;2022-09-21T02:44:51;100996.41;;;6.19;89.67
70841;BME280;58465;51.534;9.934;2022-09-21T02:47:41;100998.16;;;6.18;89.78
70841;BME280;58465;51.534;9.934;2022-09-21T02:50:16;101005.22;;;6.13;89.69
70841;BME280;58465;51.534;9.934;2022-09-21T02:52:44;101002.53;;;6.12;89.72
70841;BME280;58465;51.534;9.934;2022-09-21T02:55:10;101005.16;;;6.10;89.69
70841;BME280;58465;51.534;9.934;2022-09-21T02:57:37;100998.09;;;6.11;89.71
70841;BME280;58465;51.534;9.934;2022-09-21T03:00:04;100995.50;;;6.14;90.04
70841;BME280;58465;51.534;9.934;2022-09-21T03:02:38;101007.03;;;6.20;90.02
70841;BME280;58465;51.534;9.934;2022-09-21T03:05:04;100999.09;;;6.22;89.92
70841;BME280;58465;51.534;9.934;2022-09-21T03:07:29;101000.91;;;6.24;89.73
70841;BME280;58465;51.534;9.934;2022-09-21T03:09:55;101004.50;;;6.31;89.83
70841;BME280;58465;51.534;9.934;2022-09-21T03:12:20;101001.88;;;6.32;89.72
70841;BME280;58465;51.534;9.934;2022-09-21T03:14:46;101001.84;;;6.31;89.66
70841;BME280;58465;51.534;9.934;2022-09-21T03:17:11;101001.78;;;6.23;89.54
70841;BME280;58465;51.534;9.934;2022-09-21T03:19:36;100999.81;;;6.07;89.42
70841;BME280;58465;51.534;9.934;2022-09-21T03:22:02;100998.84;;;5.99;89.03
70841;BME280;58465;51.534;9.934;2022-09-21T03:24:27;101005.03;;;6.00;89.09
70841;BME280;58465;51.534;9.934;2022-09-21T03:27:15;100998.84;;;5.99;89.20
70841;BME280;58465;51.534;9.934;2022-09-21T03:29:41;101007.75;;;6.06;89.27
70841;BME280;58465;51.534;9.934;2022-09-21T03:32:06;101001.56;;;6.07;89.42
70841;BME280;58465;51.534;9.934;2022-09-21T03:34:32;101006.06;;;6.12;89.26
70841;BME280;58465;51.534;9.934;2022-09-21T03:36:58;101016.78;;;6.21;89.00
70841;BME280;58465;51.534;9.934;2022-09-21T03:39:24;101009.75;;;6.23;89.16
70841;BME280;58465;51.534;9.934;2022-09-21T03:41:49;101014.97;;;6.17;88.91
70841;BME280;58465;51.534;9.934;2022-09-21T03:44:14;101010.50;;;6.12;88.90
70841;BME280;58465;51.534;9.934;2022-09-21T03:46:42;101020.25;;;6.16;88.80
70841;BME280;58465;51.534;9.934;2022-09-21T03:49:07;101016.72;;;6.17;88.71
70841;BME280;58465;51.534;9.934;2022-09-21T03:51:33;101013.28;;;6.24;88.83
70841;BME280;58465;51.534;9.934;2022-09-21T03:53:58;101020.31;;;6.20;88.92
70841;BME280;58465;51.534;9.934;2022-09-21T03:56:23;101021.22;;;6.25;88.73
70841;BME280;58465;51.534;9.934;2022-09-21T03:58:49;101022.09;;;6.21;89.05
70841;BME280;58465;51.534;9.934;2022-09-21T04:01:14;101019.47;;;6.26;88.82
70841;BME280;58465;51.534;9.934;2022-09-21T04:03:39;101019.44;;;6.21;88.38
70841;BME280;58465;51.534;9.934;2022-09-21T04:06:08;101029.22;;;6.27;88.91
70841;BME280;58465;51.534;9.934;2022-09-21T04:08:34;101014.25;;;6.32;88.83
70841;BME280;58465;51.534;9.934;2022-09-21T04:10:59;101019.56;;;6.32;88.96
70841;BME280;58465;51.534;9.934;2022-09-21T04:13:24;101021.25;;;6.27;88.63
70841;BME280;58465;51.534;9.934;2022-09-21T04:15:49;101023.78;;;6.16;87.98
70841;BME280;58465;51.534;9.934;2022-09-21T04:18:16;101024.66;;;6.14;88.52
70841;BME280;58465;51.534;9.934;2022-09-21T04:20:41;101025.44;;;6.04;88.66
70841;BME280;58465;51.534;9.934;2022-09-21T04:23:06;101028.03;;;6.01;88.49
70841;BME280;58465;51.534;9.934;2022-09-21T04:25:32;101025.34;;;5.97;89.05
70841;BME280;58465;51.534;9.934;2022-09-21T04:27:57;101021.81;;;5.95;88.83
70841;BME280;58465;51.534;9.934;2022-09-21T04:30:23;101026.09;;;5.86;88.61
70841;BME280;58465;51.534;9.934;2022-09-21T04:32:48;101027.03;;;5.89;88.76
70841;BME280;58465;51.534;9.934;2022-09-21T04:35:13;101021.72;;;5.89;88.97
70841;BME280;58465;51.534;9.934;2022-09-21T04:37:54;101020.91;;;5.95;88.95
70841;BME280;58465;51.534;9.934;2022-09-21T04:40:20;101028.13;;;6.08;89.03
70841;BME280;58465;51.534;9.934;2022-09-21T04:42:52;101030.00;;;6.18;89.25
70841;BME280;58465;51.534;9.934;2022-09-21T04:45:21;101026.56;;;6.28;89.44
70841;BME280;58465;51.534;9.934;2022-09-21T04:47:47;101031.09;;;6.37;88.94
70841;BME280;58465;51.534;9.934;2022-09-21T04:50:12;101032.97;;;6.47;88.81
70841;BME280;58465;51.534;9.934;2022-09-21T04:52:38;101030.34;;;6.50;88.71
70841;BME280;58465;51.534;9.934;2022-09-21T04:55:04;101040.94;;;6.49;87.97
70841;BME280;58465;51.534;9.934;2022-09-21T04:57:30;101039.19;;;6.49;88.11
70841;BME280;58465;51.534;9.934;2022-09-21T04:59:55;101037.47;;;6.57;88.27
70841;BME280;58465;51.534;9.934;2022-09-21T05:02:20;101040.91;;;6.46;87.60
70841;BME280;58465;51.534;9.934;2022-09-21T05:04:45;101043.63;;;6.50;87.56
70841;BME280;58465;51.534;9.934;2022-09-21T05:07:11;101047.13;;;6.49;87.53
70841;BME280;58465;51.534;9.934;2022-09-21T05:09:36;101043.63;;;6.50;87.67
70841;BME280;58465;51.534;9.934;2022-09-21T05:12:20;101054.28;;;6.53;87.69
70841;BME280;58465;51.534;9.934;2022-09-21T05:14:45;101052.44;;;6.49;87.63
70841;BME280;58465;51.534;9.934;2022-09-21T05:17:11;101054.28;;;6.53;87.67
70841;BME280;58465;51.534;9.934;2022-09-21T05:19:36;101058.69;;;6.56;87.42
70841;BME280;58465;51.534;9.934;2022-09-21T05:22:02;101054.22;;;6.49;87.63
70841;BME280;58465;51.534;9.934;2022-09-21T05:24:27;101055.13;;;6.51;87.66
70841;BME280;58465;51.534;9.934;2022-09-21T05:26:53;101064.75;;;6.44;87.67
70841;BME280;58465;51.534;9.934;2022-09-21T05:29:18;101062.09;;;6.44;87.75
70841;BME280;58465;51.534;9.934;2022-09-21T05:32:06;101068.34;;;6.46;87.71
70841;BME280;58465;51.534;9.934;2022-09-21T05:37:09;101071.75;;;6.34;87.81
70841;BME280;58465;51.534;9.934;2022-09-21T05:39:35;101074.44;;;6.38;87.75
70841;BME280;58465;51.534;9.934;2022-09-21T05:42:01;101076.25;;;6.42;87.41
70841;BME280;58465;51.534;9.934;2022-09-21T05:44:27;101079.03;;;6.54;87.81
70841;BME280;58465;51.534;9.934;2022-09-21T05:49:48;101085.50;;;6.82;88.15
70841;BME280;58465;51.534;9.934;2022-09-21T05:52:38;101081.97;;;6.81;87.93
70841;BME280;58465;51.534;9.934;2022-09-21T05:55:26;101085.53;;;6.86;87.22
70841;BME280;58465;51.534;9.934;2022-09-21T05:58:04;101090.03;;;6.92;87.30
70841;BME280;58465;51.534;9.934;2022-09-21T06:00:46;101098.06;;;6.99;86.73
70841;BME280;58465;51.534;9.934;2022-09-21T06:03:28;101094.59;;;7.08;86.45
70841;BME280;58465;51.534;9.934;2022-09-21T06:05:54;101096.41;;;7.14;86.02
70841;BME280;58465;51.534;9.934;2022-09-21T06:08:20;101093.78;;;7.18;85.88
70841;BME280;58465;51.534;9.934;2022-09-21T06:10:46;101099.09;;;7.21;85.75
70841;BME280;58465;51.534;9.934;2022-09-21T06:13:12;101100.91;;;7.22;85.47
70841;BME280;58465;51.534;9.934;2022-09-21T06:15:38;101107.16;;;7.27;84.88
70841;BME280;58465;51.534;9.934;2022-09-21T06:18:07;101106.25;;;7.27;84.05
70841;BME280;58465;51.534;9.934;2022-09-21T06:20:33;101109.84;;;7.30;83.39
70841;BME280;58465;51.534;9.934;2022-09-21T06:23:03;101108.06;;;7.29;83.50
70841;BME280;58465;51.534;9.934;2022-09-21T06:25:29;101109.03;;;7.45;83.96
70841;BME280;58465;51.534;9.934;2022-09-21T06:27:54;101106.44;;;7.53;83.57
70841;BME280;58465;51.534;9.934;2022-09-21T06:30:19;101102.94;;;7.58;82.85
70841;BME280;58465;51.534;9.934;2022-09-21T06:32:45;101103.88;;;7.71;83.28
70841;BME280;58465;51.534;9.934;2022-09-21T06:35:10;101109.16;;;7.63;82.32
70841;BME280;58465;51.534;9.934;2022-09-21T06:37:35;101108.22;;;7.55;83.01
70841;BME280;58465;51.534;9.934;2022-09-21T06:40:05;101116.28;;;7.67;83.68
70841;BME280;58465;51.534;9.934;2022-09-21T06:42:31;101109.13;;;7.56;83.18
70841;BME280;58465;51.534;9.934;2022-09-21T06:44:56;101111.84;;;7.69;83.86
70841;BME280;58465;51.534;9.934;2022-09-21T06:47:21;101115.41;;;7.68;83.08
70841;BME280;58465;51.534;9.934;2022-09-21T06:49:46;101114.50;;;7.66;83.21
70841;BME280;58465;51.534;9.934;2022-09-21T07:22:33;101103.38;;;8.48;79.72
70841;BME280;58465;51.534;9.934;2022-09-21T07:24:59;101109.66;;;8.64;79.97
70841;BME280;58465;51.534;9.934;2022-09-21T07:27:25;101107.88;;;8.72;80.44
70841;BME280;58465;51.534;9.934;2022-09-21T07:29:50;101122.09;;;8.95;78.70
70841;BME280;58465;51.534;9.934;2022-09-21T07:32:16;101117.69;;;8.89;78.49
70841;BME280;58465;51.534;9.934;2022-09-21T07:34:41;101119.44;;;8.97;78.50
70841;BME280;58465;51.534;9.934;2022-09-21T07:37:07;101117.69;;;9.17;77.80
70841;BME280;58465;51.534;9.934;2022-09-21T07:39:32;101119.47;;;9.18;77.66
70841;BME280;58465;51.534;9.934;2022-09-21T07:41:57;101117.69;;;9.14;77.73
70841;BME280;58465;51.534;9.934;2022-09-21T07:44:23;101126.59;;;9.31;77.73
70841;BME280;58465;51.534;9.934;2022-09-21T07:46:49;101129.25;;;9.46;76.86
70841;BME280;58465;51.534;9.934;2022-09-21T07:49:14;101131.03;;;9.61;75.90
70841;BME280;58465;51.534;9.934;2022-09-21T07:51:39;101127.47;;;9.59;75.16
70841;BME280;58465;51.534;9.934;2022-09-21T07:54:05;101131.03;;;9.30;75.70
70841;BME280;58465;51.534;9.934;2022-09-21T07:56:30;101135.47;;;9.33;76.77
70841;BME280;58465;51.534;9.934;2022-09-21T07:58:55;101134.56;;;9.45;76.38
70841;BME280;58465;51.534;9.934;2022-09-21T08:01:34;101139.00;;;9.65;75.70
70841;BME280;58465;51.534;9.934;2022-09-21T08:04:01;101124.75;;;9.74;75.62
70841;BME280;58465;51.534;9.934;2022-09-21T08:06:28;101124.75;;;9.88;75.74
70841;BME280;58465;51.534;9.934;2022-09-21T08:09:00;101124.75;;;9.86;74.60
70841;BME280;58465;51.534;9.934;2022-09-21T08:11:27;101131.88;;;9.77;74.82
70841;BME280;58465;51.534;9.934;2022-09-21T08:13:57;101135.44;;;9.80;74.65
70841;BME280;58465;51.534;9.934;2022-09-21T08:16:22;101130.97;;;9.87;75.20
70841;BME280;58465;51.534;9.934;2022-09-21T08:18:49;101137.16;;;9.98;74.10
70841;BME280;58465;51.534;9.934;2022-09-21T08:21:16;101131.75;;;10.13;73.74
70841;BME280;58465;51.534;9.934;2022-09-21T08:23:41;101129.00;;;10.47;73.46
70841;BME280;58465;51.534;9.934;2022-09-21T08:26:07;101128.84;;;10.75;71.96
70841;BME280;58465;51.534;9.934;2022-09-21T08:28:35;101131.34;;;11.00;71.88
70841;BME280;58465;51.534;9.934;2022-09-21T08:31:02;101136.75;;;10.88;71.34
70841;BME280;58465;51.534;9.934;2022-09-21T08:33:28;101127.69;;;11.11;71.97
70841;BME280;58465;51.534;9.934;2022-09-21T08:35:55;101134.72;;;11.25;71.31
70841;BME280;58465;51.534;9.934;2022-09-21T08:38:21;101134.59;;;11.40;70.59
70841;BME280;58465;51.534;9.934;2022-09-21T08:40:47;101132.00;;;11.34;70.53
70841;BME280;58465;51.534;9.934;2022-09-21T08:43:17;101133.66;;;11.45;70.73
70841;BME280;58465;51.534;9.934;2022-09-21T08:45:46;101127.47;;;11.40;69.49
70841;BME280;58465;51.534;9.934;2022-09-21T08:48:18;101123.81;;;11.50;69.84
70841;BME280;58465;51.534;9.934;2022-09-21T08:50:48;101125.34;;;11.80;69.42
70841;BME280;58465;51.534;9.934;2022-09-21T08:53:25;101129.00;;;11.67;69.30
70841;BME280;58465;51.534;9.934;2022-09-21T08:55:56;101133.81;;;11.27;70.95
70841;BME280;58465;51.534;9.934;2022-09-21T08:58:22;101134.69;;;11.26;70.66
70841;BME280;58465;51.534;9.934;2022-09-21T09:01:13;101138.03;;;11.54;70.48
70841;BME280;58465;51.534;9.934;2022-09-21T09:20:04;101137.44;;;12.13;67.31
70841;BME280;58465;51.534;9.934;2022-09-21T09:22:39;101138.56;;;11.94;68.76
70841;BME280;58465;51.534;9.934;2022-09-21T09:25:22;101140.31;;;11.97;69.79
70841;BME280;58465;51.534;9.934;2022-09-21T09:27:57;101139.03;;;12.31;68.87
70841;BME280;58465;51.534;9.934;2022-09-21T09:30:25;101137.66;;;12.69;67.95
70841;BME280;58465;51.534;9.934;2022-09-21T09:33:00;101133.22;;;12.66;67.39
70841;BME280;58465;51.534;9.934;2022-09-21T09:35:37;101134.50;;;12.36;68.07
70841;BME280;58465;51.534;9.934;2022-09-21T09:41:02;101136.78;;;12.67;68.00
70841;BME280;58465;51.534;9.934;2022-09-21T09:46:16;101138.63;;;12.61;67.77
70841;BME280;58465;51.534;9.934;2022-09-21T09:49:16;101127.69;;;12.11;69.42
70841;BME280;58465;51.534;9.934;2022-09-21T09:51:45;101135.97;;;11.85;71.37
70841;BME280;58465;51.534;9.934;2022-09-21T09:54:13;101136.69;;;12.02;71.26
70841;BME280;58465;51.534;9.934;2022-09-21T09:56:39;101129.19;;;12.32;70.84
70841;BME280;58465;51.534;9.934;2022-09-21T09:59:10;101124.41;;;12.56;69.67
70841;BME280;58465;51.534;9.934;2022-09-21T10:01:43;101132.38;;;12.61;70.00
70841;BME280;58465;51.534;9.934;2022-09-21T10:04:15;101126.44;;;12.39;69.77
70841;BME280;58465;51.534;9.934;2022-09-21T10:06:42;101131.69;;;12.48;70.36
70841;BME280;58465;51.534;9.934;2022-09-21T10:09:29;101125.22;;;12.63;69.82
70841;BME280;58465;51.534;9.934;2022-09-21T10:12:01;101122.50;;;12.66;70.21
70841;BME280;58465;51.534;9.934;2022-09-21T10:14:31;101128.50;;;12.83;69.78
70841;BME280;58465;51.534;9.934;2022-09-21T10:17:04;101123.94;;;12.88;69.46
70841;BME280;58465;51.534;9.934;2022-09-21T10:19:30;101116.75;;;12.92;69.45
70841;BME280;58465;51.534;9.934;2022-09-21T10:21:57;101117.59;;;12.95;69.28
70841;BME280;58465;51.534;9.934;2022-09-21T10:24:28;101118.78;;;12.76;69.61
70841;BME280;58465;51.534;9.934;2022-09-21T10:27:02;101114.03;;;12.95;70.01
70841;BME280;58465;51.534;9.934;2022-09-21T10:29:30;101113.75;;;13.13;69.22
70841;BME280;58465;51.534;9.934;2022-09-21T10:32:02;101109.13;;;13.24;68.88
70841;BME280;58465;51.534;9.934;2022-09-21T10:34:32;101108.00;;;13.36;68.27
70841;BME280;58465;51.534;9.934;2022-09-21T10:37:00;101104.38;;;13.40;68.39
70841;BME280;58465;51.534;9.934;2022-09-21T10:39:29;101105.47;;;13.27;68.70
70841;BME280;58465;51.534;9.934;2022-09-21T10:42:10;101100.19;;;13.24;68.01
70841;BME280;58465;51.534;9.934;2022-09-21T10:44:48;101090.19;;;13.33;69.10
70841;BME280;58465;51.534;9.934;2022-09-21T10:47:32;101091.53;;;13.57;68.63
70841;BME280;58465;51.534;9.934;2022-09-21T10:50:02;101092.94;;;13.78;68.35
70841;BME280;58465;51.534;9.934;2022-09-21T10:52:34;101095.44;;;13.87;67.29
70841;BME280;58465;51.534;9.934;2022-09-21T10:55:00;101091.72;;;13.94;67.49
70841;BME280;58465;51.534;9.934;2022-09-21T10:57:27;101090.91;;;13.91;64.95
70841;BME280;58465;51.534;9.934;2022-09-21T10:59:53;101091.16;;;13.79;64.42
70841;BME280;58465;51.534;9.934;2022-09-21T11:05:20;101083.13;;;13.77;64.17
70841;BME280;58465;51.534;9.934;2022-09-21T11:08:10;101074.66;;;13.98;64.34
70841;BME280;58465;51.534;9.934;2022-09-21T11:10:43;101082.53;;;14.07;63.11
70841;BME280;58465;51.534;9.934;2022-09-21T11:13:46;101077.22;;;14.47;62.96
70841;BME280;58465;51.534;9.934;2022-09-21T11:16:25;101075.66;;;14.77;60.97
70841;BME280;58465;51.534;9.934;2022-09-21T11:19:02;101076.88;;;15.00;60.74
70841;BME280;58465;51.534;9.934;2022-09-21T11:26:41;101067.03;;;15.36;57.22
70841;BME280;58465;51.534;9.934;2022-09-21T11:29:17;101071.81;;;15.58;57.03
70841;BME280;58465;51.534;9.934;2022-09-21T11:34:35;101054.22;;;17.50;53.47
70841;BME280;58465;51.534;9.934;2022-09-21T11:37:32;101061.34;;;18.73;51.83
70841;BME280;58465;51.534;9.934;2022-09-21T11:40:12;101054.66;;;20.08;45.83
70841;BME280;58465;51.534;9.934;2022-09-21T11:42:59;101054.81;;;20.24;46.75
70841;BME280;58465;51.534;9.934;2022-09-21T11:51:02;101044.81;;;22.21;37.84
70841;BME280;58465;51.534;9.934;2022-09-21T11:54:00;101043.50;;;21.96;37.57
70841;BME280;58465;51.534;9.934;2022-09-21T11:56:37;101045.03;;;22.01;41.19
70841;BME280;58465;51.534;9.934;2022-09-21T11:59:45;101038.25;;;22.90;38.94
70841;BME280;58465;51.534;9.934;2022-09-21T12:02:33;101028.78;;;22.97;36.17
70841;BME280;58465;51.534;9.934;2022-09-21T12:10:37;101025.28;;;23.71;35.15
70841;BME280;58465;51.534;9.934;2022-09-21T12:13:05;101020.84;;;24.12;39.07
70841;BME280;58465;51.534;9.934;2022-09-21T12:15:52;101019.59;;;24.87;34.33
70841;BME280;58465;51.534;9.934;2022-09-21T12:18:40;101023.53;;;24.97;37.49
70841;BME280;58465;51.534;9.934;2022-09-21T12:21:24;101015.34;;;25.49;33.19
70841;BME280;58465;51.534;9.934;2022-09-21T12:23:55;101013.59;;;25.48;35.74
70841;BME280;58465;51.534;9.934;2022-09-21T12:26:35;101013.38;;;25.39;34.67
70841;BME280;58465;51.534;9.934;2022-09-21T12:29:06;101005.91;;;25.68;34.50
70841;BME280;58465;51.534;9.934;2022-09-21T12:31:42;101018.41;;;26.10;34.45
70841;BME280;58465;51.534;9.934;2022-09-21T12:34:18;101012.06;;;26.22;31.77
70841;BME280;58465;51.534;9.934;2022-09-21T12:36:53;101003.28;;;25.79;33.24
70841;BME280;58465;51.534;9.934;2022-09-21T12:39:28;101002.50;;;25.25;31.80
70841;BME280;58465;51.534;9.934;2022-09-21T12:42:24;100996.41;;;25.34;31.37
70841;BME280;58465;51.534;9.934;2022-09-21T12:44:55;101001.88;;;25.86;33.94
70841;BME280;58465;51.534;9.934;2022-09-21T12:50:32;100998.22;;;26.62;27.00
70841;BME280;58465;51.534;9.934;2022-09-21T12:53:00;100996.81;;;26.18;33.24
70841;BME280;58465;51.534;9.934;2022-09-21T12:55:33;100984.47;;;24.95;35.78
70841;BME280;58465;51.534;9.934;2022-09-21T12:58:15;100983.38;;;23.12;33.11
70841;BME280;58465;51.534;9.934;2022-09-21T13:00:52;100985.03;;;22.04;38.45
70841;BME280;58465;51.534;9.934;2022-09-21T13:03:48;100990.53;;;22.67;34.94
70841;BME280;58465;51.534;9.934;2022-09-21T13:09:20;100976.56;;;23.05;38.38
70841;BME280;58465;51.534;9.934;2022-09-21T13:11:54;100976.50;;;21.77;38.42
70841;BME280;58465;51.534;9.934;2022-09-21T13:14:23;100971.69;;;20.96;42.53
70841;BME280;58465;51.534;9.934;2022-09-21T13:16:58;100964.06;;;21.39;39.71
70841;BME280;58465;51.534;9.934;2022-09-21T13:19:27;100966.72;;;21.23;40.43
70841;BME280;58465;51.534;9.934;2022-09-21T13:22:11;100956.47;;;20.00;39.82
70841;BME280;58465;51.534;9.934;2022-09-21T13:24:40;100959.38;;;19.16;45.11
70841;BME280;58465;51.534;9.934;2022-09-21T13:27:07;100961.78;;;18.81;46.06
70841;BME280;58465;51.534;9.934;2022-09-21T13:29:35;100957.69;;;18.71;44.51
70841;BME280;58465;51.534;9.934;2022-09-21T13:32:20;100954.94;;;18.73;41.27
70841;BME280;58465;51.534;9.934;2022-09-21T13:34:45;100958.75;;;18.67;44.69
70841;BME280;58465;51.534;9.934;2022-09-21T13:39:43;100960.31;;;18.51;42.96
70841;BME280;58465;51.534;9.934;2022-09-21T13:44:54;100949.38;;;18.54;44.70
70841;BME280;58465;51.534;9.934;2022-09-21T13:47:32;100948.56;;;18.29;43.23
70841;BME280;58465;51.534;9.934;2022-09-21T13:50:00;100935.31;;;17.99;43.27
70841;BME280;58465;51.534;9.934;2022-09-21T13:52:32;100937.66;;;18.08;46.48
70841;BME280;58465;51.534;9.934;2022-09-21T13:55:02;100936.34;;;18.18;45.47
70841;BME280;58465;51.534;9.934;2022-09-21T14:02:37;100939.06;;;18.18;41.64
70841;BME280;58465;51.534;9.934;2022-09-21T14:07:40;100937.97;;;18.24;44.60
70841;BME280;58465;51.534;9.934;2022-09-21T14:10:07;100938.53;;;18.32;45.91
70841;BME280;58465;51.534;9.934;2022-09-21T14:12:39;100940.41;;;18.30;43.92
70841;BME280;58465;51.534;9.934;2022-09-21T14:15:29;100930.38;;;18.10;43.87
70841;BME280;58465;51.534;9.934;2022-09-21T14:20:36;100927.63;;;18.12;42.28
70841;BME280;58465;51.534;9.934;2022-09-21T14:25:52;100938.13;;;18.20;41.77
70841;BME280;58465;51.534;9.934;2022-09-21T14:28:33;100935.25;;;18.24;41.11
70841;BME280;58465;51.534;9.934;2022-09-21T14:31:05;100931.31;;;18.09;44.30
70841;BME280;58465;51.534;9.934;2022-09-21T14:33:43;100926.72;;;18.11;44.64
70841;BME280;58465;51.534;9.934;2022-09-21T14:36:15;100924.81;;;17.92;42.71
70841;BME280;58465;51.534;9.934;2022-09-21T14:38:46;100921.88;;;17.74;44.82
70841;BME280;58465;51.534;9.934;2022-09-21T14:41:18;100919.13;;;17.51;46.59
70841;BME280;58465;51.534;9.934;2022-09-21T14:43:49;100915.31;;;17.32;44.92
70841;BME280;58465;51.534;9.934;2022-09-21T14:46:23;100916.88;;;17.14;47.35
70841;BME280;58465;51.534;9.934;2022-09-21T14:54:49;100911.47;;;16.63;48.48
70841;BME280;58465;51.534;9.934;2022-09-21T14:57:25;100907.09;;;16.59;47.43
70841;BME280;58465;51.534;9.934;2022-09-21T15:00:16;100901.06;;;16.51;47.75
70841;BME280;58465;51.534;9.934;2022-09-21T15:02:46;100906.41;;;16.52;47.91
70841;BME280;58465;51.534;9.934;2022-09-21T15:05:36;100898.25;;;16.54;47.02
70841;BME280;58465;51.534;9.934;2022-09-21T15:08:16;100899.22;;;16.53;48.00
70841;BME280;58465;51.534;9.934;2022-09-21T15:11:23;100898.56;;;16.45;46.64
70841;BME280;58465;51.534;9.934;2022-09-21T15:14:19;100893.47;;;16.36;47.53
70841;BME280;58465;51.534;9.934;2022-09-21T15:16:48;100898.22;;;16.27;46.95
70841;BME280;58465;51.534;9.934;2022-09-21T15:21:45;100886.81;;;16.19;48.76